createdAt,value
2018-07-02T00:02:03.433Z,20.44
2018-07-02T00:06:58.946Z,20.40
2018-07-02T00:11:42.501Z,19.46
2018-07-02T00:16:30.536Z,19.69
2018-07-02T00:21:14.068Z,19.87
2018-07-02T00:25:59.349Z,20.20
2018-07-02T00:30:42.909Z,19.77
2018-07-02T00:35:26.432Z,19.90
2018-07-02T00:40:13.157Z,19.61
2018-07-02T00:44:56.686Z,19.52
2018-07-02T00:49:43.180Z,19.26
2018-07-02T00:54:26.777Z,19.62
2018-07-02T00:59:13.504Z,19.60
2018-07-02T01:03:58.834Z,20.01
2018-07-02T01:08:42.516Z,20.08
2018-07-02T01:13:26.133Z,20.02
2018-07-02T01:18:09.851Z,19.83
2018-07-02T01:22:53.357Z,19.74
2018-07-02T01:27:37.073Z,19.06
2018-07-02T01:32:20.587Z,19.73
2018-07-02T01:37:05.267Z,19.65
2018-07-02T01:41:48.906Z,18.75
2018-07-02T01:46:33.508Z,19.52
2018-07-02T01:51:17.107Z,19.13
2018-07-02T01:56:01.820Z,19.25
2018-07-02T02:00:45.236Z,19.23
2018-07-02T02:05:28.865Z,19.12
2018-07-02T02:10:12.345Z,19.57
2018-07-02T02:14:55.825Z,19.56
2018-07-02T02:19:40.664Z,19.54
2018-07-02T02:24:24.145Z,19.17
2018-07-02T02:29:07.720Z,18.57
2018-07-02T02:33:51.228Z,19.06
2018-07-02T02:38:37.823Z,18.92
2018-07-02T02:43:21.472Z,19.25
2018-07-02T02:48:05.427Z,19.00
2018-07-02T02:52:49.016Z,18.29
2018-07-02T02:57:33.697Z,18.24
2018-07-02T03:02:17.340Z,18.87
2018-07-02T03:07:10.210Z,19.13
2018-07-02T03:11:53.897Z,19.10
2018-07-02T03:16:38.804Z,19.35
2018-07-02T03:21:22.484Z,19.03
2018-07-02T03:26:07.149Z,18.82
2018-07-02T03:30:50.730Z,18.88
2018-07-02T03:35:37.792Z,19.24
2018-07-02T03:40:21.319Z,19.29
2018-07-02T03:45:04.976Z,19.34
2018-07-02T03:49:51.621Z,19.31
2018-07-02T03:54:35.156Z,19.25
2018-07-02T03:59:21.774Z,19.16
2018-07-02T04:04:23.116Z,19.25
2018-07-02T04:09:11.654Z,19.28
2018-07-02T04:13:55.685Z,19.34
2018-07-02T04:18:39.316Z,19.35
2018-07-02T04:23:23.952Z,19.26
2018-07-02T04:28:07.578Z,19.18
2018-07-02T04:32:52.151Z,19.33
2018-07-02T04:37:35.782Z,19.36
2018-07-02T04:42:20.311Z,19.35
2018-07-02T04:47:03.914Z,19.30
2018-07-02T04:51:47.581Z,19.29
2018-07-02T04:56:31.158Z,19.41
2018-07-02T05:01:14.671Z,19.46
2018-07-02T05:06:04.213Z,19.57
2018-07-02T05:10:47.817Z,19.66
2018-07-02T05:15:31.426Z,19.67
2018-07-02T05:20:14.968Z,19.79
2018-07-02T05:25:02.279Z,19.74
2018-07-02T05:29:45.963Z,19.55
2018-07-02T05:34:32.845Z,19.87
2018-07-02T05:39:16.592Z,19.83
2018-07-02T05:44:04.036Z,20.04
2018-07-02T05:48:48.613Z,20.16
2018-07-02T05:53:32.497Z,20.02
2018-07-02T05:58:16.170Z,20.17
2018-07-02T06:03:00.009Z,20.43
2018-07-02T06:07:43.731Z,20.68
2018-07-02T06:12:27.360Z,20.78
2018-07-02T06:17:11.056Z,21.05
2018-07-02T06:21:54.604Z,21.23
2018-07-02T06:26:38.150Z,21.09
2018-07-02T06:31:21.696Z,21.22
2018-07-02T06:36:05.241Z,21.43
2018-07-02T06:40:49.541Z,21.21
2018-07-02T06:45:36.466Z,21.36
2018-07-02T06:50:21.132Z,21.32
2018-07-02T06:55:07.149Z,21.31
2018-07-02T06:59:51.360Z,21.61
2018-07-02T07:04:35.745Z,21.87
2018-07-02T07:09:20.495Z,21.70
2018-07-02T07:14:07.874Z,21.97
2018-07-02T07:18:51.426Z,21.82
2018-07-02T07:23:38.967Z,22.23
2018-07-02T07:28:22.840Z,22.08
2018-07-02T07:33:09.508Z,22.29
2018-07-02T07:37:53.152Z,22.49
2018-07-02T07:42:38.010Z,22.61
2018-07-02T07:47:21.579Z,22.02
2018-07-02T07:52:06.226Z,21.88
2018-07-02T07:56:49.768Z,22.32
2018-07-02T08:01:33.206Z,22.59
2018-07-02T08:06:16.801Z,22.36
2018-07-02T08:11:00.243Z,22.87
2018-07-02T08:15:43.881Z,22.61
2018-07-02T08:20:27.565Z,22.53
2018-07-02T08:25:12.306Z,22.83
2018-07-02T08:29:55.896Z,23.06
2018-07-02T08:34:43.190Z,23.22
2018-07-02T08:39:26.853Z,22.92
2018-07-02T08:44:10.676Z,23.29
2018-07-02T08:48:54.191Z,23.21
2018-07-02T08:53:38.876Z,23.18
2018-07-02T08:58:22.504Z,23.40
2018-07-02T09:03:07.230Z,23.46
2018-07-02T09:07:50.770Z,23.08
2018-07-02T09:12:34.478Z,23.75
2018-07-02T09:17:18.024Z,23.87
2018-07-02T09:22:01.660Z,23.87
2018-07-02T09:26:45.130Z,23.92
2018-07-02T09:31:32.652Z,24.07
2018-07-02T09:36:16.264Z,24.37
2018-07-02T09:41:04.029Z,23.93
2018-07-02T09:45:47.457Z,24.08
2018-07-02T09:50:30.923Z,24.31
2018-07-02T09:55:15.581Z,24.24
2018-07-02T09:59:59.155Z,24.48
2018-07-02T10:04:42.840Z,24.18
2018-07-02T10:09:26.449Z,24.51
2018-07-02T10:14:13.637Z,24.91
2018-07-02T10:18:57.228Z,24.39
2018-07-02T10:23:41.965Z,24.78
2018-07-02T10:28:25.575Z,25.00
2018-07-02T10:33:10.582Z,24.42
2018-07-02T10:37:55.382Z,24.69
2018-07-02T10:42:44.644Z,24.69
2018-07-02T10:47:28.314Z,25.09
2018-07-02T10:52:14.008Z,24.80
2018-07-02T10:56:57.651Z,24.82
2018-07-02T11:01:44.091Z,25.12
2018-07-02T11:06:27.538Z,25.49
2018-07-02T11:11:14.619Z,24.80
2018-07-02T11:15:58.246Z,25.09
2018-07-02T11:20:43.336Z,24.69
2018-07-02T11:25:27.142Z,24.69
2018-07-02T11:30:10.722Z,25.36
2018-07-02T11:34:55.601Z,25.59
2018-07-02T11:39:43.241Z,25.06
2018-07-02T11:44:31.360Z,25.46
2018-07-02T11:54:41.857Z,24.70
2018-07-02T11:59:25.289Z,25.92
2018-07-02T12:04:12.028Z,25.56
2018-07-02T12:08:55.818Z,25.82
2018-07-02T12:13:39.550Z,25.77
2018-07-02T12:18:23.082Z,25.31
2018-07-02T12:23:12.459Z,26.17
2018-07-02T12:27:55.920Z,25.92
2018-07-02T12:32:40.588Z,25.42
2018-07-02T12:37:24.127Z,25.23
2018-07-02T12:42:08.817Z,25.20
2018-07-02T12:46:52.482Z,25.78
2018-07-02T12:51:36.163Z,25.68
2018-07-02T12:56:19.858Z,25.99
2018-07-02T13:01:03.624Z,26.83
2018-07-02T13:05:47.311Z,27.07
2018-07-02T13:10:33.997Z,27.16
2018-07-02T13:15:17.580Z,26.36
2018-07-02T13:20:01.167Z,26.06
2018-07-02T13:24:44.600Z,25.83
2018-07-02T13:29:28.111Z,25.77
2018-07-02T13:34:11.846Z,25.74
2018-07-02T13:38:55.372Z,25.68
2018-07-02T13:43:41.992Z,25.59
2018-07-02T13:48:25.544Z,25.53
2018-07-02T13:53:12.771Z,25.43
2018-07-02T13:57:56.296Z,25.36
2018-07-02T14:02:43.410Z,25.48
2018-07-02T14:07:26.942Z,25.33
2018-07-02T14:12:14.195Z,25.55
2018-07-02T14:16:57.817Z,25.50
2018-07-02T14:21:42.742Z,25.42
2018-07-02T14:26:26.288Z,25.37
2018-07-02T14:31:10.857Z,25.33
2018-07-02T14:35:54.380Z,25.25
2018-07-02T14:40:39.172Z,25.32
2018-07-02T14:45:22.976Z,25.28
2018-07-02T14:50:07.784Z,25.23
2018-07-02T14:54:51.421Z,25.33
2018-07-02T14:59:36.707Z,25.10
2018-07-02T15:04:20.429Z,25.13
2018-07-02T15:09:06.816Z,25.15
2018-07-02T15:13:54.109Z,25.04
2018-07-02T15:18:37.672Z,24.93
2018-07-02T15:23:25.702Z,24.95
2018-07-02T15:28:09.885Z,24.92
2018-07-02T15:32:53.493Z,24.88
2018-07-02T15:37:37.030Z,24.88
2018-07-02T15:42:23.995Z,24.97
2018-07-02T15:47:07.475Z,24.90
2018-07-02T15:51:51.237Z,24.88
2018-07-02T15:56:34.838Z,24.91
2018-07-02T16:01:18.625Z,24.84
2018-07-02T16:06:02.196Z,24.90
2018-07-02T16:10:46.899Z,24.98
2018-07-02T16:15:31.258Z,24.93
2018-07-02T16:20:16.024Z,24.79
2018-07-02T16:25:02.064Z,24.81
2018-07-02T16:29:49.139Z,24.74
2018-07-02T16:34:32.998Z,24.65
2018-07-02T16:39:16.622Z,24.73
2018-07-02T16:44:04.721Z,24.60
2018-07-02T16:48:48.202Z,24.43
2018-07-02T16:53:37.173Z,24.63
2018-07-02T16:58:20.810Z,24.67
2018-07-02T17:03:05.973Z,24.53
2018-07-02T17:07:49.678Z,24.51
2018-07-02T17:12:33.580Z,24.58
2018-07-02T17:17:17.169Z,24.76
2018-07-02T17:22:04.536Z,24.39
2018-07-02T17:26:48.169Z,24.52
2018-07-02T17:31:32.838Z,24.41
2018-07-02T17:36:16.429Z,24.31
2018-07-02T17:41:03.117Z,24.25
2018-07-02T17:45:46.781Z,24.21
2018-07-02T17:50:33.347Z,24.65
2018-07-02T17:55:16.870Z,24.45
2018-07-02T18:00:01.652Z,24.48
2018-07-02T18:04:45.304Z,24.45
2018-07-02T18:09:28.889Z,24.22
2018-07-02T18:14:12.606Z,24.46
2018-07-02T18:18:56.318Z,24.55
2018-07-02T18:23:41.827Z,24.28
2018-07-02T18:28:26.162Z,24.31
2018-07-02T18:33:11.437Z,24.24
2018-07-02T18:37:54.940Z,24.47
2018-07-02T18:42:44.482Z,24.49
2018-07-02T18:47:28.159Z,24.48
2018-07-02T18:52:14.866Z,24.53
2018-07-02T18:56:58.546Z,24.60
2018-07-02T19:03:16.146Z,24.20
2018-07-02T19:08:02.858Z,24.34
2018-07-02T19:12:50.280Z,24.04
2018-07-02T19:17:34.809Z,24.25
2018-07-02T19:22:19.669Z,24.09
2018-07-02T19:27:03.327Z,24.11
2018-07-02T19:31:48.287Z,23.72
2018-07-02T19:36:31.995Z,24.00
2018-07-02T19:41:19.156Z,23.94
2018-07-02T19:46:02.789Z,24.06
2018-07-02T19:50:49.773Z,23.64
2018-07-02T19:55:33.447Z,23.98
2018-07-02T20:00:20.060Z,23.81
2018-07-02T20:05:03.522Z,23.80
2018-07-02T20:09:50.409Z,24.06
2018-07-02T20:14:34.036Z,24.15
2018-07-02T20:19:17.732Z,23.99
2018-07-02T20:24:01.302Z,23.91
2018-07-02T20:28:44.812Z,23.51
2018-07-02T20:33:28.294Z,23.62
2018-07-02T20:38:11.900Z,23.62
2018-07-02T20:42:55.638Z,23.82
2018-07-02T20:47:39.232Z,23.07
2018-07-02T20:52:26.576Z,23.70
2018-07-02T20:57:10.803Z,23.59
2018-07-02T21:01:54.450Z,23.76
2018-07-02T21:06:39.218Z,23.47
2018-07-02T21:11:25.998Z,23.72
2018-07-02T21:16:10.257Z,23.42
2018-07-02T21:20:53.895Z,23.11
2018-07-02T21:25:37.507Z,23.10
2018-07-02T21:30:24.529Z,23.38
2018-07-02T21:35:09.678Z,23.40
2018-07-02T21:39:57.015Z,23.48
2018-07-02T21:44:40.472Z,23.65
2018-07-02T21:49:24.126Z,23.27
2018-07-02T21:54:07.795Z,22.73
2018-07-02T21:58:51.544Z,23.36
2018-07-02T22:03:35.243Z,23.50
2018-07-02T22:08:18.865Z,23.48
2018-07-02T22:13:03.245Z,22.83
2018-07-02T22:17:46.836Z,23.21
2018-07-02T22:22:31.598Z,23.37
2018-07-02T22:27:15.220Z,22.89
2018-07-02T22:31:58.922Z,22.42
2018-07-02T22:36:42.541Z,22.22
2018-07-02T22:41:27.196Z,22.33
2018-07-02T22:46:10.800Z,22.31
2018-07-02T22:50:57.850Z,22.58
2018-07-02T22:55:52.121Z,22.55
2018-07-02T23:00:36.711Z,22.35
2018-07-02T23:05:20.249Z,22.91
2018-07-02T23:10:06.882Z,23.05
2018-07-02T23:14:50.291Z,22.61
2018-07-02T23:19:35.263Z,23.00
2018-07-02T23:24:18.769Z,22.95
2018-07-02T23:29:02.448Z,22.31
2018-07-02T23:33:46.129Z,22.27
2018-07-02T23:38:29.713Z,22.46
2018-07-02T23:43:13.367Z,22.77
2018-07-02T23:47:56.947Z,22.18
2018-07-02T23:52:41.677Z,22.02
2018-07-02T23:57:25.244Z,22.28
